Time;durP1;ratioP1;P1;durP2;ratioP2;P2;SDS_P1;SDS_P2;PMS_P1;PMS_P2;Temp;Humidity;BMP_temperature;BMP_pressure;BME280_temperature;BME280_humidity;BME280_pressure;Samples;Min_cycle;Max_cycle;Signal;HPM_P1;HPM_P2
2024/01/10 07:07:19;;;;;;;24.48;13.43;;;;;;;;;;6163595;23;20025;-88
2024/01/10 10:28:07;;;;;;;23.35;14.10;;;;;;;;;;6199263;23;20025;-91
2024/01/10 10:30:33;;;;;;;21.08;13.30;;;;;;;;;;6186360;23;20017;-84
2024/01/10 10:32:59;;;;;;;19.60;12.88;;;;;;;;;;6186430;23;20008;-90
2024/01/10 10:35:25;;;;;;;24.92;13.75;;;;;;;;;;6184975;23;20005;-90
2024/01/10 10:37:52;;;;;;;22.83;14.50;;;;;;;;;;6186278;23;20486;-89
2024/01/10 10:40:19;;;;;;;23.15;13.13;;;;;;;;;;6184619;23;20009;-90
2024/01/10 10:42:46;;;;;;;23.00;13.85;;;;;;;;;;6184874;23;20008;-93
2024/01/10 10:45:19;;;;;;;23.02;14.13;;;;;;;;;;6184477;23;20009;-92
2024/01/10 10:47:48;;;;;;;20.73;13.43;;;;;;;;;;6184616;23;20016;-92
2024/01/10 10:50:21;;;;;;;21.27;14.43;;;;;;;;;;6187815;23;20036;-92
2024/01/10 10:52:47;;;;;;;21.27;13.10;;;;;;;;;;6186196;23;20005;-91
2024/01/10 10:55:16;;;;;;;26.00;14.93;;;;;;;;;;6185195;23;20009;-91
2024/01/10 10:57:44;;;;;;;19.40;12.75;;;;;;;;;;6184754;23;20531;-91
2024/01/10 11:00:15;;;;;;;23.98;14.57;;;;;;;;;;6184641;23;20005;-91
2024/01/10 11:02:41;;;;;;;22.52;14.00;;;;;;;;;;6184397;23;20012;-88
2024/01/10 11:05:08;;;;;;;20.13;13.00;;;;;;;;;;6184062;23;20088;-89
2024/01/10 11:07:36;;;;;;;23.58;14.32;;;;;;;;;;6184218;23;20058;-90
2024/01/10 11:10:04;;;;;;;22.67;13.63;;;;;;;;;;6185988;23;20032;-90
2024/01/10 11:12:33;;;;;;;24.35;13.60;;;;;;;;;;6184957;23;20087;-89
2024/01/10 11:15:02;;;;;;;24.65;13.75;;;;;;;;;;6187448;23;20008;-88
2024/01/10 11:17:50;;;;;;;25.27;14.15;;;;;;;;;;6188599;23;20005;-91
2024/01/10 11:20:47;;;;;;;22.58;13.90;;;;;;;;;;6187586;23;20424;-89
2024/01/10 11:23:44;;;;;;;22.42;13.73;;;;;;;;;;6187550;23;20079;-88
2024/01/10 11:26:10;;;;;;;21.85;13.27;;;;;;;;;;6186282;23;20009;-89
2024/01/10 11:28:40;;;;;;;20.00;13.65;;;;;;;;;;6188019;23;20012;-93
2024/01/10 11:31:09;;;;;;;22.63;13.23;;;;;;;;;;6188595;23;20079;-93
2024/01/10 11:33:43;;;;;;;24.08;14.25;;;;;;;;;;6190062;23;20076;-92
2024/01/10 11:36:24;;;;;;;21.65;12.82;;;;;;;;;;6186574;23;20005;-89
2024/01/10 11:38:56;;;;;;;22.27;13.23;;;;;;;;;;6187740;23;20001;-90
2024/01/10 11:41:27;;;;;;;22.58;13.02;;;;;;;;;;6189533;23;20036;-90
2024/01/10 11:44:11;;;;;;;25.25;14.30;;;;;;;;;;6162211;23;20016;-90
2024/01/10 11:46:43;;;;;;;22.77;13.93;;;;;;;;;;6186676;23;20040;-89
2024/01/10 11:49:14;;;;;;;23.80;14.25;;;;;;;;;;6186490;23;20080;-91
2024/01/10 11:51:42;;;;;;;25.00;13.18;;;;;;;;;;6187308;23;20051;-90
2024/01/10 11:54:11;;;;;;;22.80;13.90;;;;;;;;;;6187755;23;20008;-91
2024/01/10 11:56:41;;;;;;;22.35;13.57;;;;;;;;;;6188343;23;20012;-93
2024/01/10 11:59:11;;;;;;;23.65;14.15;;;;;;;;;;6186966;23;20013;-91
2024/01/10 12:01:41;;;;;;;22.63;13.60;;;;;;;;;;6187046;23;20113;-91
2024/01/10 12:04:07;;;;;;;21.77;13.85;;;;;;;;;;6187901;23;20016;-92
2024/01/10 12:06:37;;;;;;;22.65;13.27;;;;;;;;;;6187007;23;20005;-91
2024/01/10 12:09:08;;;;;;;23.33;13.48;;;;;;;;;;6186410;23;20009;-91
2024/01/10 12:11:34;;;;;;;22.48;13.27;;;;;;;;;;6186778;23;20001;-92
2024/01/10 12:14:03;;;;;;;23.25;13.98;;;;;;;;;;6187089;23;20055;-92
2024/01/10 12:16:32;;;;;;;22.40;14.00;;;;;;;;;;6187216;23;20009;-92
2024/01/10 12:19:00;;;;;;;24.80;14.25;;;;;;;;;;6188691;23;20080;-93
2024/01/10 12:21:26;;;;;;;25.30;13.63;;;;;;;;;;6186805;23;20032;-92
2024/01/10 12:23:52;;;;;;;24.65;13.65;;;;;;;;;;6187047;23;20012;-91
2024/01/10 12:26:19;;;;;;;24.15;13.60;;;;;;;;;;6186722;23;20055;-91
2024/01/10 12:28:55;;;;;;;27.05;15.45;;;;;;;;;;6189176;23;20333;-92
2024/01/10 12:31:22;;;;;;;25.80;13.90;;;;;;;;;;6187229;23;20005;-93
2024/01/10 12:33:49;;;;;;;25.63;13.93;;;;;;;;;;6189463;23;20005;-93
2024/01/10 12:36:19;;;;;;;26.33;14.93;;;;;;;;;;6186893;23;20005;-92
2024/01/10 12:38:45;;;;;;;23.00;14.38;;;;;;;;;;6188233;23;20323;-90
2024/01/10 12:41:11;;;;;;;21.90;13.43;;;;;;;;;;6186077;23;20088;-91
2024/01/10 12:43:37;;;;;;;21.45;13.70;;;;;;;;;;6191001;23;20004;-96
2024/01/10 17:13:00;;;;;;;30.60;18.00;;;;;;;;;;6164700;23;20043;-93
2024/01/10 18:34:55;;;;;;;28.17;18.03;;;;;;;;;;6139833;23;20009;-95
2024/01/10 18:37:20;;;;;;;29.58;16.52;;;;;;;;;;6187260;23;20246;-94
2024/01/10 18:39:46;;;;;;;29.38;16.85;;;;;;;;;;6187336;23;20012;-94
2024/01/10 18:42:12;;;;;;;27.67;17.23;;;;;;;;;;6187633;23;20363;-92
2024/01/10 18:44:37;;;;;;;26.92;17.25;;;;;;;;;;6188371;23;20001;-95
2024/01/10 18:47:04;;;;;;;29.38;18.02;;;;;;;;;;6188432;23;20009;-94
2024/01/10 18:49:30;;;;;;;27.85;16.25;;;;;;;;;;6163198;23;20052;-91
2024/01/10 18:51:57;;;;;;;24.50;14.73;;;;;;;;;;6186951;23;20008;-90
2024/01/10 18:54:24;;;;;;;27.10;14.85;;;;;;;;;;6187124;23;20005;-92
2024/01/10 18:56:49;;;;;;;26.65;15.88;;;;;;;;;;6187566;23;20028;-92
2024/01/10 18:59:15;;;;;;;22.60;14.23;;;;;;;;;;6187772;23;20009;-91
2024/01/10 19:01:43;;;;;;;22.77;14.90;;;;;;;;;;6187999;23;20395;-94
2024/01/10 19:04:09;;;;;;;26.02;16.02;;;;;;;;;;6188561;23;20014;-93
2024/01/10 19:06:34;;;;;;;34.78;16.88;;;;;;;;;;6188087;23;20459;-92
2024/01/10 19:09:01;;;;;;;25.23;15.60;;;;;;;;;;6187988;23;20036;-92
2024/01/10 19:11:27;;;;;;;25.63;15.70;;;;;;;;;;6165964;23;20024;-93
2024/01/10 19:13:52;;;;;;;24.92;14.95;;;;;;;;;;6191769;23;20092;-93
2024/01/10 19:16:18;;;;;;;23.73;14.90;;;;;;;;;;6191933;23;20004;-94
2024/01/10 19:18:43;;;;;;;31.02;17.33;;;;;;;;;;6190199;23;20012;-96
2024/01/10 19:21:09;;;;;;;30.65;17.40;;;;;;;;;;6188985;23;20005;-92
2024/01/10 19:23:37;;;;;;;32.53;17.92;;;;;;;;;;6190373;23;20028;-93
2024/01/10 19:26:02;;;;;;;31.67;17.95;;;;;;;;;;6188975;23;20017;-94
2024/01/10 19:28:28;;;;;;;29.67;16.63;;;;;;;;;;6189809;23;20500;-95
2024/01/10 19:30:57;;;;;;;27.65;15.95;;;;;;;;;;6190513;23;20009;-94
2024/01/10 19:33:23;;;;;;;26.63;15.43;;;;;;;;;;6193573;23;20022;-96
2024/01/10 19:35:49;;;;;;;26.17;15.40;;;;;;;;;;6191506;23;20036;-96
2024/01/10 19:38:15;;;;;;;27.42;15.95;;;;;;;;;;6164101;23;20009;-94
2024/01/10 19:40:41;;;;;;;26.48;15.50;;;;;;;;;;6195189;23;20001;-96
2024/01/10 19:43:07;;;;;;;24.75;15.80;;;;;;;;;;6166231;23;20040;-95
2024/01/10 19:45:32;;;;;;;26.77;16.27;;;;;;;;;;6192758;23;20001;-95
2024/01/10 19:48:00;;;;;;;24.15;15.48;;;;;;;;;;6196041;23;20001;-95
2024/01/10 19:50:25;;;;;;;28.38;16.30;;;;;;;;;;6170690;23;20070;-96
2024/01/10 19:52:52;;;;;;;28.40;18.13;;;;;;;;;;6195952;23;20011;-96
2024/01/10 19:55:19;;;;;;;28.63;17.55;;;;;;;;;;6195048;23;20012;-95
2024/01/10 19:57:45;;;;;;;28.00;16.50;;;;;;;;;;6193101;23;20008;-96
2024/01/10 20:00:10;;;;;;;27.88;16.55;;;;;;;;;;6196593;23;20093;-96
2024/01/10 20:02:36;;;;;;;25.83;16.88;;;;;;;;;;6194300;23;20005;-96
2024/01/10 20:05:02;;;;;;;31.40;17.92;;;;;;;;;;6192742;23;20001;-96
2024/01/10 20:07:27;;;;;;;32.97;19.33;;;;;;;;;;6192671;23;20001;-96
2024/01/10 20:09:53;;;;;;;28.42;17.52;;;;;;;;;;6195622;23;20395;-96
2024/01/10 20:12:20;;;;;;;34.35;19.23;;;;;;;;;;6201935;23;20035;-96
2024/01/10 20:14:46;;;;;;;27.90;16.95;;;;;;;;;;6212394;23;19993;-94
2024/01/10 20:17:17;;;;;;;30.33;18.17;;;;;;;;;;6177575;23;20016;-96
2024/01/10 20:19:42;;;;;;;41.72;21.88;;;;;;;;;;6190780;23;20013;-94
2024/01/10 20:22:08;;;;;;;52.10;27.63;;;;;;;;;;6189556;23;20005;-94
2024/01/10 20:24:33;;;;;;;30.50;18.10;;;;;;;;;;6187423;23;20009;-93
2024/01/10 20:26:59;;;;;;;29.17;16.63;;;;;;;;;;6187969;23;20004;-95
2024/01/10 20:29:24;;;;;;;29.27;15.27;;;;;;;;;;6188130;23;20044;-95
2024/01/10 20:31:50;;;;;;;27.35;16.20;;;;;;;;;;6188817;23;20013;-96
2024/01/10 20:34:16;;;;;;;30.90;16.20;;;;;;;;;;6190541;23;20024;-92
2024/01/10 20:36:41;;;;;;;25.35;15.13;;;;;;;;;;6193973;23;20001;-95
2024/01/10 20:39:07;;;;;;;24.30;15.52;;;;;;;;;;6203483;23;20009;-94
2024/01/10 20:41:34;;;;;;;27.05;16.58;;;;;;;;;;6203547;23;20036;-92
2024/01/10 20:44:01;;;;;;;28.65;16.63;;;;;;;;;;6204222;23;20008;-94
2024/01/10 20:46:27;;;;;;;26.10;16.13;;;;;;;;;;6166904;23;20032;-93
2024/01/10 20:48:56;;;;;;;26.42;15.85;;;;;;;;;;6202058;23;20013;-94
2024/01/10 20:51:22;;;;;;;31.20;17.77;;;;;;;;;;6187496;23;20005;-93
2024/01/10 20:53:52;;;;;;;32.40;17.63;;;;;;;;;;6169336;23;20009;-92
2024/01/10 20:56:19;;;;;;;103.65;43.30;;;;;;;;;;6171411;23;20008;-94
2024/01/10 20:58:44;;;;;;;69.10;31.27;;;;;;;;;;6186841;23;20063;-94
2024/01/10 21:01:10;;;;;;;48.83;23.48;;;;;;;;;;6194495;23;20329;-95
2024/01/10 21:03:36;;;;;;;47.58;23.60;;;;;;;;;;6186852;23;20036;-93
2024/01/10 21:06:03;;;;;;;44.42;22.48;;;;;;;;;;6186980;23;20474;-94
2024/01/10 21:08:29;;;;;;;51.40;26.08;;;;;;;;;;6186662;23;20047;-94
2024/01/10 21:10:56;;;;;;;56.85;32.80;;;;;;;;;;6188959;23;20009;-95
2024/01/10 21:13:22;;;;;;;84.93;45.40;;;;;;;;;;6193378;23;20009;-92
2024/01/10 21:15:47;;;;;;;88.95;46.70;;;;;;;;;;6186911;23;20357;-94
2024/01/10 21:18:13;;;;;;;43.60;25.42;;;;;;;;;;6187325;23;20060;-93
2024/01/10 21:20:38;;;;;;;60.42;30.15;;;;;;;;;;6186038;23;20035;-95
2024/01/10 21:23:04;;;;;;;51.97;26.85;;;;;;;;;;6186403;23;20016;-93
2024/01/10 21:25:29;;;;;;;48.42;28.38;;;;;;;;;;6188548;23;20491;-94
2024/01/10 21:27:55;;;;;;;37.42;21.55;;;;;;;;;;6187823;23;20001;-93
2024/01/10 21:30:20;;;;;;;41.50;21.35;;;;;;;;;;6185838;23;20075;-94
2024/01/10 21:32:46;;;;;;;56.47;26.23;;;;;;;;;;6186494;23;20413;-95
2024/01/10 21:35:12;;;;;;;44.88;22.20;;;;;;;;;;6186045;23;20096;-96
2024/01/10 21:37:38;;;;;;;39.65;25.83;;;;;;;;;;6186503;23;19996;-96
2024/01/10 21:40:04;;;;;;;52.50;30.38;;;;;;;;;;6186108;23;20035;-96
2024/01/10 21:42:29;;;;;;;38.63;23.50;;;;;;;;;;6186560;23;20027;-95
2024/01/10 21:44:56;;;;;;;34.50;20.98;;;;;;;;;;6186553;23;20084;-94
2024/01/10 21:47:21;;;;;;;33.22;18.52;;;;;;;;;;6186218;23;20059;-93
2024/01/10 21:49:47;;;;;;;31.45;17.25;;;;;;;;;;6186100;23;20009;-92
2024/01/10 21:52:12;;;;;;;30.38;17.33;;;;;;;;;;6186206;23;20336;-95
2024/01/10 21:54:39;;;;;;;33.22;19.50;;;;;;;;;;6186604;23;20005;-96
2024/01/10 21:57:05;;;;;;;31.17;18.27;;;;;;;;;;6189621;23;20009;-95
2024/01/10 21:59:31;;;;;;;32.40;17.33;;;;;;;;;;6186249;23;20048;-95
2024/01/10 22:01:57;;;;;;;27.02;16.23;;;;;;;;;;6185277;23;20008;-95
2024/01/10 22:04:23;;;;;;;34.42;17.52;;;;;;;;;;6187355;23;20009;-95
2024/01/10 22:06:48;;;;;;;30.23;17.40;;;;;;;;;;6186896;23;20084;-94
2024/01/10 22:09:14;;;;;;;29.67;17.35;;;;;;;;;;6187048;23;20005;-93
2024/01/10 22:11:42;;;;;;;29.42;17.70;;;;;;;;;;6186937;23;20001;-93
2024/01/10 22:14:07;;;;;;;29.88;17.80;;;;;;;;;;6186278;23;20005;-95
2024/01/10 22:16:33;;;;;;;29.15;16.95;;;;;;;;;;6185695;23;20005;-94
2024/01/10 22:18:58;;;;;;;34.88;18.25;;;;;;;;;;6186152;23;20009;-93
2024/01/10 22:21:24;;;;;;;31.17;19.35;;;;;;;;;;6161526;23;20340;-93
2024/01/10 22:23:49;;;;;;;32.22;18.92;;;;;;;;;;6185789;23;20476;-93
2024/01/10 22:26:15;;;;;;;28.45;16.52;;;;;;;;;;6185732;23;20017;-90
2024/01/10 22:28:40;;;;;;;33.70;17.23;;;;;;;;;;6186811;23;20016;-93
2024/01/10 22:31:06;;;;;;;29.73;16.80;;;;;;;;;;6185562;23;20365;-94
2024/01/10 22:33:32;;;;;;;29.48;16.77;;;;;;;;;;6185346;23;20017;-95
2024/01/10 22:35:57;;;;;;;31.00;17.23;;;;;;;;;;6185397;23;20009;-95
2024/01/10 22:38:23;;;;;;;28.98;16.60;;;;;;;;;;6185476;23;20024;-93
2024/01/10 22:40:48;;;;;;;33.08;16.83;;;;;;;;;;6185656;23;20014;-94
2024/01/10 22:43:14;;;;;;;33.83;17.55;;;;;;;;;;6185346;23;20087;-96
2024/01/10 22:45:39;;;;;;;32.03;17.00;;;;;;;;;;6185103;23;19997;-96
2024/01/10 22:48:05;;;;;;;30.20;16.67;;;;;;;;;;6185393;23;20059;-96
2024/01/10 22:50:31;;;;;;;29.92;16.98;;;;;;;;;;6185112;23;20013;-96
2024/01/10 22:52:57;;;;;;;31.92;17.60;;;;;;;;;;6185854;23;20013;-94
2024/01/10 22:55:22;;;;;;;32.85;18.58;;;;;;;;;;6185683;23;20005;-95
2024/01/10 22:57:51;;;;;;;31.00;17.02;;;;;;;;;;6188635;23;20009;-96
2024/01/10 23:00:21;;;;;;;32.13;17.60;;;;;;;;;;6191326;23;20436;-94
2024/01/10 23:02:47;;;;;;;28.10;16.65;;;;;;;;;;6190002;23;20433;-94
2024/01/10 23:05:13;;;;;;;31.45;17.33;;;;;;;;;;6184850;23;20005;-94
2024/01/10 23:07:38;;;;;;;30.27;16.83;;;;;;;;;;6186142;23;20087;-95
2024/01/10 23:10:04;;;;;;;30.45;17.35;;;;;;;;;;6186878;23;20447;-95
2024/01/10 23:12:30;;;;;;;31.00;18.30;;;;;;;;;;6187402;23;20005;-94
2024/01/10 23:14:55;;;;;;;31.67;17.38;;;;;;;;;;6187033;23;20016;-95
2024/01/10 23:17:21;;;;;;;28.23;16.35;;;;;;;;;;6186968;23;19997;-95
2024/01/10 23:19:46;;;;;;;32.58;17.88;;;;;;;;;;6186801;23;20009;-94
2024/01/10 23:22:12;;;;;;;31.08;18.13;;;;;;;;;;6187166;23;20005;-94
2024/01/10 23:24:37;;;;;;;30.17;16.42;;;;;;;;;;6186942;23;20322;-95
2024/01/10 23:27:03;;;;;;;30.05;16.63;;;;;;;;;;6187157;23;20139;-96
2024/01/10 23:29:28;;;;;;;30.00;16.55;;;;;;;;;;6186947;23;20005;-94
2024/01/10 23:31:57;;;;;;;32.28;17.13;;;;;;;;;;6186979;23;20068;-94
2024/01/10 23:34:22;;;;;;;32.70;18.20;;;;;;;;;;6186597;23;20017;-93
2024/01/10 23:36:48;;;;;;;30.30;18.30;;;;;;;;;;6187144;23;20054;-89
2024/01/10 23:39:14;;;;;;;29.63;17.20;;;;;;;;;;6187444;23;20451;-92
2024/01/10 23:41:42;;;;;;;33.47;17.95;;;;;;;;;;6186959;23;20032;-93
